createdAt,value
2023-02-11T00:00:00.922Z,8.22
2023-02-11T00:05:04.862Z,8.17
2023-02-11T00:10:09.129Z,8.16
2023-02-11T00:15:12.291Z,8.15
2023-02-11T00:20:15.721Z,8.11
2023-02-11T00:25:18.687Z,8.08
2023-02-11T00:30:21.803Z,8.07
2023-02-11T00:35:24.913Z,8.04
2023-02-11T00:40:28.420Z,8.03
2023-02-11T00:45:31.517Z,8.09
2023-02-11T00:50:35.681Z,8.13
2023-02-11T00:55:39.344Z,8.12
2023-02-11T01:00:42.987Z,8.09
2023-02-11T01:05:46.315Z,8.09
2023-02-11T01:10:56.533Z,8.10
2023-02-11T01:16:00.148Z,8.10
2023-02-11T01:21:03.555Z,8.10
2023-02-11T01:26:06.900Z,8.08
2023-02-11T01:31:10.133Z,8.06
2023-02-11T01:36:13.452Z,8.00
2023-02-11T01:41:16.490Z,7.96
2023-02-11T01:46:29.086Z,7.91
2023-02-11T01:51:39.317Z,7.86
2023-02-11T01:56:47.158Z,7.82
2023-02-11T02:02:00.967Z,7.81
2023-02-11T02:07:11.277Z,7.82
2023-02-11T02:12:14.490Z,7.82
2023-02-11T02:17:46.481Z,7.78
2023-02-11T02:23:14.276Z,7.75
2023-02-11T02:28:35.226Z,7.72
2023-02-11T02:33:53.837Z,7.72
2023-02-11T02:39:08.532Z,7.69
2023-02-11T02:44:12.061Z,7.66
2023-02-11T02:49:16.770Z,7.64
2023-02-11T02:54:35.055Z,7.66
2023-02-11T03:00:11.419Z,7.67
2023-02-11T03:05:45.750Z,7.67
2023-02-11T03:10:52.846Z,7.61
2023-02-11T03:15:58.703Z,7.65
2023-02-11T03:21:05.682Z,7.66
2023-02-11T03:26:39.427Z,7.71
2023-02-11T03:32:10.041Z,7.68
2023-02-11T03:37:29.699Z,7.65
2023-02-11T03:42:38.410Z,7.60
2023-02-11T03:47:47.608Z,7.55
2023-02-11T03:52:51.894Z,7.49
2023-02-11T03:57:55.643Z,7.43
2023-02-11T04:02:59.349Z,7.39
2023-02-11T04:08:03.002Z,7.36
2023-02-11T04:13:06.261Z,7.36
2023-02-11T04:18:09.427Z,7.38
2023-02-11T04:23:12.485Z,7.34
2023-02-11T04:28:15.683Z,7.26
2023-02-11T04:33:18.803Z,7.23
2023-02-11T04:38:21.989Z,7.19
2023-02-11T04:43:25.018Z,7.20
2023-02-11T04:48:28.302Z,7.17
2023-02-11T04:53:31.496Z,7.22
2023-02-11T04:58:35.201Z,7.22
2023-02-11T05:03:38.529Z,7.25
2023-02-11T05:08:41.479Z,7.24
2023-02-11T05:13:44.516Z,7.29
2023-02-11T05:18:47.756Z,7.32
2023-02-11T05:23:51.004Z,7.42
2023-02-11T05:28:54.114Z,7.49
2023-02-11T05:33:57.320Z,7.57
2023-02-11T05:39:00.527Z,7.66
2023-02-11T05:44:03.767Z,7.74
2023-02-11T05:49:07.004Z,7.80
2023-02-11T05:54:10.162Z,7.89
2023-02-11T05:59:16.651Z,8.00
2023-02-11T06:04:19.844Z,8.14
2023-02-11T06:09:23.085Z,8.29
2023-02-11T06:14:26.095Z,8.38
2023-02-11T06:19:29.659Z,8.67
2023-02-11T06:24:58.523Z,9.11
2023-02-11T06:29:56.479Z,9.28
2023-02-11T06:34:59.798Z,9.02
2023-02-11T06:40:02.907Z,8.88
2023-02-11T06:45:08.453Z,8.87
2023-02-11T06:50:14.125Z,8.92
2023-02-11T06:55:17.511Z,8.98
2023-02-11T07:00:20.457Z,9.01
2023-02-11T07:05:23.685Z,9.01
2023-02-11T07:10:27.110Z,9.08
2023-02-11T07:15:30.313Z,9.14
2023-02-11T07:20:33.449Z,9.25
2023-02-11T07:25:37.067Z,9.33
2023-02-11T07:30:40.301Z,9.40
2023-02-11T07:35:43.280Z,9.41
2023-02-11T07:40:46.340Z,9.54
2023-02-11T07:45:49.771Z,9.66
2023-02-11T07:50:53.077Z,9.78
2023-02-11T07:55:56.202Z,9.95
2023-02-11T08:01:04.787Z,10.15
2023-02-11T08:06:14.033Z,10.20
2023-02-11T08:11:28.676Z,10.19
2023-02-11T08:16:35.268Z,10.32
2023-02-11T08:21:39.113Z,10.33
2023-02-11T08:26:42.828Z,10.37
2023-02-11T08:31:47.764Z,10.48
2023-02-11T08:36:51.349Z,10.52
2023-02-11T08:41:55.532Z,10.66
2023-02-11T08:46:58.642Z,10.75
2023-02-11T08:52:02.177Z,10.79
2023-02-11T08:57:08.174Z,10.87
2023-02-11T09:02:15.277Z,10.78
2023-02-11T09:07:18.474Z,10.79
2023-02-11T09:12:21.642Z,10.88
2023-02-11T09:17:24.871Z,10.94
2023-02-11T09:22:28.055Z,10.91
2023-02-11T09:27:31.214Z,11.02
2023-02-11T09:32:35.020Z,11.19
2023-02-11T09:37:38.296Z,11.17
2023-02-11T09:42:46.742Z,11.16
2023-02-11T09:47:58.463Z,11.36
2023-02-11T09:53:23.636Z,11.54
2023-02-11T09:58:30.118Z,11.56
2023-02-11T10:03:55.345Z,11.53
2023-02-11T10:09:29.240Z,11.58
2023-02-11T10:14:53.354Z,11.75
2023-02-11T10:20:29.691Z,11.86
2023-02-11T10:25:39.469Z,11.92
2023-02-11T10:30:53.418Z,11.88
2023-02-11T10:35:56.910Z,12.04
2023-02-11T10:41:00.167Z,12.17
2023-02-11T10:46:05.893Z,12.13
2023-02-11T10:51:23.571Z,12.13
2023-02-11T10:56:28.317Z,12.14
2023-02-11T11:01:51.803Z,12.08
2023-02-11T11:06:55.698Z,11.96
2023-02-11T11:11:58.957Z,11.95
2023-02-11T11:17:02.220Z,12.01
2023-02-11T11:22:05.909Z,12.06
2023-02-11T11:27:19.228Z,12.04
2023-02-11T11:32:30.079Z,12.05
2023-02-11T11:37:37.074Z,12.08
2023-02-11T11:42:40.516Z,12.15
2023-02-11T11:47:49.194Z,12.23
2023-02-11T11:53:04.683Z,12.29
2023-02-11T11:58:18.962Z,12.31
2023-02-11T12:03:37.609Z,12.27
2023-02-11T12:09:04.812Z,12.22
2023-02-11T12:14:32.227Z,12.26
2023-02-11T12:20:10.545Z,12.37
2023-02-11T12:25:39.314Z,12.38
2023-02-11T12:30:53.173Z,12.37
2023-02-11T12:36:26.180Z,12.36
2023-02-11T12:41:50.684Z,12.38
2023-02-11T12:47:09.666Z,12.38
2023-02-11T12:52:35.684Z,12.46
2023-02-11T12:57:43.754Z,12.51
2023-02-11T13:03:08.385Z,12.52
2023-02-11T13:08:35.612Z,12.59
2023-02-11T13:13:57.736Z,12.61
2023-02-11T13:19:13.121Z,12.64
2023-02-11T13:24:40.008Z,12.71
2023-02-11T13:30:18.491Z,12.70
2023-02-11T13:35:35.250Z,12.74
2023-02-11T13:40:39.906Z,12.78
2023-02-11T13:45:46.882Z,12.81
2023-02-11T13:50:54.559Z,12.83
2023-02-11T13:56:23.607Z,12.84
2023-02-11T14:02:20.415Z,12.84
2023-02-11T14:07:32.089Z,12.81
2023-02-11T14:12:35.620Z,12.73
2023-02-11T14:17:38.751Z,12.64
2023-02-11T14:22:49.762Z,12.54
2023-02-11T14:28:00.353Z,12.38
2023-02-11T14:33:24.467Z,12.27
2023-02-11T14:38:40.031Z,12.19
2023-02-11T14:43:51.374Z,12.16
2023-02-11T14:48:58.709Z,12.15
2023-02-11T14:54:17.619Z,12.11
2023-02-11T14:59:23.016Z,12.04
2023-02-11T15:04:34.082Z,11.93
2023-02-11T15:09:48.171Z,11.80
2023-02-11T15:14:54.886Z,11.66
2023-02-11T15:20:01.948Z,11.56
2023-02-11T15:25:12.419Z,11.47
2023-02-11T15:30:24.356Z,11.36
2023-02-11T15:35:37.781Z,11.27
2023-02-11T15:40:40.954Z,11.21
2023-02-11T15:45:59.936Z,11.15
2023-02-11T15:51:12.736Z,11.08
2023-02-11T15:56:26.172Z,11.02
2023-02-11T16:01:35.342Z,10.95
2023-02-11T16:06:42.836Z,10.90
2023-02-11T16:11:48.666Z,10.83
2023-02-11T16:16:55.473Z,10.78
2023-02-11T16:22:01.365Z,10.73
2023-02-11T16:27:16.878Z,10.69
2023-02-11T16:32:25.831Z,10.67
2023-02-11T16:37:29.003Z,10.63
2023-02-11T16:42:32.087Z,10.61
2023-02-11T16:47:35.971Z,10.60
2023-02-11T16:52:39.267Z,10.58
2023-02-11T16:57:42.375Z,10.51
2023-02-11T17:02:45.980Z,10.47
2023-02-11T17:07:50.130Z,10.44
2023-02-11T17:12:53.332Z,10.42
2023-02-11T17:17:56.510Z,10.39
2023-02-11T17:22:59.742Z,10.35
2023-02-11T17:28:04.063Z,10.30
2023-02-11T17:33:07.547Z,10.24
2023-02-11T17:38:11.299Z,10.27
2023-02-11T17:43:14.385Z,10.29
2023-02-11T17:48:17.561Z,10.24
2023-02-11T17:53:20.826Z,10.22
2023-02-11T17:58:24.141Z,10.16
2023-02-11T18:03:27.269Z,10.13
2023-02-11T18:08:30.944Z,10.20
2023-02-11T18:13:34.155Z,10.20
2023-02-11T18:18:37.371Z,10.17
2023-02-11T18:23:42.285Z,10.13
2023-02-11T18:28:46.089Z,10.09
2023-02-11T18:33:50.215Z,10.13
2023-02-11T18:38:53.691Z,10.15
2023-02-11T18:43:58.458Z,10.18
2023-02-11T18:49:01.617Z,10.18
2023-02-11T18:54:04.739Z,10.16
2023-02-11T18:59:07.850Z,10.15
2023-02-11T19:04:10.938Z,10.14
2023-02-11T19:09:17.525Z,10.12
2023-02-11T19:14:25.961Z,10.11
2023-02-11T19:19:31.467Z,10.06
2023-02-11T19:24:35.709Z,10.01
2023-02-11T19:29:39.137Z,9.99
2023-02-11T19:34:42.554Z,9.95
2023-02-11T19:39:45.571Z,9.95
2023-02-11T19:44:48.549Z,9.97
2023-02-11T19:49:51.632Z,10.03
2023-02-11T19:54:54.924Z,10.08
2023-02-11T19:59:58.418Z,10.09
2023-02-11T20:05:01.634Z,10.03
2023-02-11T20:10:06.715Z,9.98
2023-02-11T20:15:10.340Z,9.94
2023-02-11T20:20:13.545Z,9.94
2023-02-11T20:25:16.724Z,9.96
2023-02-11T20:30:20.005Z,9.95
2023-02-11T20:35:23.088Z,9.93
2023-02-11T20:40:26.310Z,9.87
2023-02-11T20:45:29.535Z,9.84
2023-02-11T20:50:33.651Z,9.83
2023-02-11T20:55:38.506Z,9.84
2023-02-11T21:00:41.716Z,9.90
2023-02-11T21:05:44.889Z,9.96
2023-02-11T21:10:48.768Z,9.99
2023-02-11T21:15:56.684Z,10.05
2023-02-11T21:21:00.680Z,10.04
2023-02-11T21:26:04.187Z,10.01
2023-02-11T21:31:07.322Z,9.96
2023-02-11T21:36:10.689Z,9.93
2023-02-11T21:41:13.911Z,10.01
2023-02-11T21:46:18.975Z,10.08
2023-02-11T21:51:24.601Z,10.14
2023-02-11T21:56:29.255Z,10.13
2023-02-11T22:01:34.396Z,10.09
2023-02-11T22:06:37.622Z,10.10
2023-02-11T22:11:40.794Z,10.12
2023-02-11T22:16:47.638Z,10.09
2023-02-11T22:21:50.716Z,10.09
2023-02-11T22:26:53.892Z,10.11
2023-02-11T22:31:57.242Z,10.18
2023-02-11T22:37:02.328Z,10.21
2023-02-11T22:42:06.089Z,10.18
2023-02-11T22:47:09.215Z,10.19
2023-02-11T22:52:12.358Z,10.19
2023-02-11T22:57:15.509Z,10.15
2023-02-11T23:02:18.859Z,10.18
2023-02-11T23:07:21.975Z,10.20
2023-02-11T23:12:25.179Z,10.22
2023-02-11T23:17:28.225Z,10.24
2023-02-11T23:22:31.283Z,10.28
2023-02-11T23:27:34.476Z,10.29
2023-02-11T23:32:40.432Z,10.41
2023-02-11T23:37:43.548Z,10.48
2023-02-11T23:42:47.253Z,10.55
2023-02-11T23:47:50.350Z,10.52
2023-02-11T23:52:53.493Z,10.47
2023-02-11T23:57:56.716Z,10.41
